createdAt,value
2018-02-07T00:01:19.049Z,27.87
2018-02-07T00:03:45.585Z,29.48
2018-02-07T00:06:12.159Z,29.15
2018-02-07T00:08:38.732Z,27.02
2018-02-07T00:11:05.301Z,32.65
2018-02-07T00:13:31.898Z,31.77
2018-02-07T00:15:58.465Z,31.30
2018-02-07T00:18:25.018Z,30.33
2018-02-07T00:20:51.960Z,27.02
2018-02-07T00:23:18.546Z,30.05
2018-02-07T00:25:45.093Z,29.10
2018-02-07T00:28:11.652Z,30.95
2018-02-07T00:30:38.212Z,29.23
2018-02-07T00:33:04.767Z,30.77
2018-02-07T00:35:31.332Z,30.70
2018-02-07T00:37:57.898Z,32.58
2018-02-07T00:40:24.500Z,31.62
2018-02-07T00:42:51.074Z,30.23
2018-02-07T00:45:17.681Z,28.38
2018-02-07T00:47:44.256Z,29.20
2018-02-07T00:50:10.810Z,29.48
2018-02-07T00:52:37.594Z,31.02
2018-02-07T00:55:04.499Z,26.73
2018-02-07T00:57:31.112Z,32.17
2018-02-07T00:59:57.708Z,31.77
2018-02-07T01:02:24.324Z,28.80
2018-02-07T01:04:50.940Z,32.17
2018-02-07T01:07:17.493Z,34.30
2018-02-07T01:09:44.411Z,32.88
2018-02-07T01:12:11.018Z,30.10
2018-02-07T01:14:37.588Z,32.67
2018-02-07T01:17:04.156Z,33.15
2018-02-07T01:19:30.739Z,27.23
2018-02-07T01:21:57.668Z,32.72
2018-02-07T01:24:24.196Z,29.55
2018-02-07T01:26:52.562Z,35.58
2018-02-07T01:29:19.159Z,31.48
2018-02-07T01:31:45.691Z,37.10
2018-02-07T01:34:12.246Z,33.88
2018-02-07T01:36:38.808Z,33.40
2018-02-07T01:39:05.386Z,35.78
2018-02-07T01:41:31.961Z,33.15
2018-02-07T01:43:58.517Z,31.83
2018-02-07T01:46:25.072Z,29.67
2018-02-07T01:48:51.639Z,29.30
2018-02-07T01:51:18.196Z,30.52
2018-02-07T01:53:44.844Z,33.95
2018-02-07T01:56:11.437Z,37.03
2018-02-07T01:58:38.073Z,32.22
2018-02-07T02:01:04.645Z,31.25
2018-02-07T02:03:31.231Z,35.90
2018-02-07T02:05:57.817Z,35.47
2018-02-07T02:08:24.352Z,33.90
2018-02-07T02:10:51.296Z,34.00
2018-02-07T02:13:18.229Z,37.10
2018-02-07T02:15:44.761Z,34.47
2018-02-07T02:18:11.352Z,29.27
2018-02-07T02:20:37.921Z,33.28
2018-02-07T02:23:04.456Z,30.95
2018-02-07T02:25:31.392Z,32.42
2018-02-07T02:27:57.952Z,34.47
2018-02-07T02:30:24.505Z,28.70
2018-02-07T02:32:51.086Z,31.27
2018-02-07T02:35:17.670Z,32.42
2018-02-07T02:37:44.204Z,30.55
2018-02-07T02:40:10.805Z,36.80
2018-02-07T02:42:37.366Z,39.00
2018-02-07T02:45:03.901Z,33.25
2018-02-07T02:47:30.458Z,37.67
2018-02-07T02:49:57.025Z,37.50
2018-02-07T02:52:23.645Z,42.97
2018-02-07T02:54:50.208Z,44.10
2018-02-07T02:57:16.776Z,41.20
2018-02-07T02:59:43.296Z,45.55
2018-02-07T03:02:09.908Z,41.35
2018-02-07T03:04:36.869Z,43.33
2018-02-07T03:07:04.840Z,41.60
2018-02-07T03:09:31.789Z,41.25
2018-02-07T03:11:58.359Z,41.90
2018-02-07T03:14:25.256Z,39.25
2018-02-07T03:16:52.173Z,44.83
2018-02-07T03:19:18.775Z,46.42
2018-02-07T03:21:45.302Z,44.03
2018-02-07T03:24:12.949Z,47.58
2018-02-07T03:26:39.553Z,52.65
2018-02-07T03:29:06.133Z,47.58
2018-02-07T03:31:33.074Z,48.83
2018-02-07T03:33:59.639Z,44.13
2018-02-07T03:36:26.541Z,44.92
2018-02-07T03:38:53.104Z,50.33
2018-02-07T03:41:19.673Z,44.47
2018-02-07T03:43:46.205Z,48.60
2018-02-07T03:46:12.773Z,37.28
2018-02-07T03:48:39.761Z,45.88
2018-02-07T03:51:06.314Z,44.60
2018-02-07T03:53:32.889Z,44.13
2018-02-07T03:55:59.453Z,45.22
2018-02-07T03:58:26.024Z,44.55
2018-02-07T04:00:52.964Z,47.20
2018-02-07T04:03:19.992Z,45.63
2018-02-07T04:05:46.525Z,43.97
2018-02-07T04:08:13.105Z,48.08
2018-02-07T04:10:39.687Z,44.17
2018-02-07T04:13:06.233Z,51.72
2018-02-07T04:15:33.435Z,49.35
2018-02-07T04:17:59.998Z,44.55
2018-02-07T04:20:26.527Z,43.22
2018-02-07T04:22:53.112Z,50.47
2018-02-07T04:25:19.698Z,48.95
2018-02-07T04:27:46.241Z,56.78
2018-02-07T04:30:12.809Z,52.38
2018-02-07T04:32:39.369Z,43.38
2018-02-07T04:35:05.926Z,51.60
2018-02-07T04:37:32.497Z,52.65
2018-02-07T04:39:59.075Z,49.25
2018-02-07T04:42:25.621Z,50.85
2018-02-07T04:44:52.219Z,46.58
2018-02-07T04:47:18.782Z,48.42
2018-02-07T04:49:45.336Z,44.65
2018-02-07T04:52:11.910Z,47.00
2018-02-07T04:54:39.510Z,50.75
2018-02-07T04:57:06.049Z,49.92
2018-02-07T04:59:32.608Z,50.00
2018-02-07T05:01:59.197Z,51.15
2018-02-07T05:04:25.728Z,49.88
2018-02-07T05:06:52.294Z,45.28
2018-02-07T05:09:18.905Z,52.58
2018-02-07T05:11:45.459Z,38.33
2018-02-07T05:14:12.036Z,44.60
2018-02-07T05:16:38.622Z,51.78
2018-02-07T05:19:05.212Z,46.37
2018-02-07T05:21:31.784Z,48.40
2018-02-07T05:23:58.616Z,50.22
2018-02-07T05:26:25.162Z,51.80
2018-02-07T05:28:51.720Z,46.63
2018-02-07T05:31:18.297Z,48.67
2018-02-07T05:33:44.849Z,53.90
2018-02-07T05:36:11.828Z,57.55
2018-02-07T05:38:38.403Z,55.12
2018-02-07T05:41:05.370Z,55.20
2018-02-07T05:43:31.949Z,59.95
2018-02-07T05:45:58.877Z,58.30
2018-02-07T05:48:25.531Z,55.28
2018-02-07T05:50:52.158Z,53.83
2018-02-07T05:53:18.761Z,58.15
2018-02-07T05:55:45.304Z,60.63
2018-02-07T05:58:12.287Z,59.90
2018-02-07T06:00:38.866Z,58.25
2018-02-07T06:03:05.541Z,54.35
2018-02-07T06:05:32.136Z,51.65
2018-02-07T06:07:58.716Z,45.47
2018-02-07T06:10:25.256Z,57.72
2018-02-07T06:12:51.841Z,53.75
2018-02-07T06:15:20.776Z,55.92
2018-02-07T06:17:47.408Z,56.13
2018-02-07T06:20:14.352Z,57.35
2018-02-07T06:22:40.959Z,55.33
2018-02-07T06:25:07.496Z,50.47
2018-02-07T06:27:34.086Z,57.33
2018-02-07T06:30:00.645Z,52.95
2018-02-07T06:32:27.571Z,48.20
2018-02-07T06:34:54.132Z,51.85
2018-02-07T06:37:22.216Z,48.87
2018-02-07T06:39:48.744Z,55.45
2018-02-07T06:42:15.313Z,55.55
2018-02-07T06:44:42.284Z,52.42
2018-02-07T06:47:09.246Z,57.62
2018-02-07T06:49:35.881Z,55.65
2018-02-07T06:52:02.837Z,50.33
2018-02-07T06:54:30.414Z,48.87
2018-02-07T06:56:57.349Z,59.88
2018-02-07T06:59:23.921Z,54.75
2018-02-07T07:01:50.864Z,52.55
2018-02-07T07:04:17.460Z,51.90
2018-02-07T07:06:44.028Z,53.58
2018-02-07T07:09:10.589Z,56.35
2018-02-07T07:11:37.189Z,60.58
2018-02-07T07:14:03.769Z,53.10
2018-02-07T07:16:30.303Z,57.42
2018-02-07T07:18:56.865Z,57.72
2018-02-07T07:21:23.441Z,63.90
2018-02-07T07:23:50.001Z,60.58
2018-02-07T07:26:16.995Z,63.33
2018-02-07T07:28:43.889Z,55.63
2018-02-07T07:31:11.073Z,47.88
2018-02-07T07:33:37.669Z,55.88
2018-02-07T07:36:04.248Z,60.92
2018-02-07T07:38:30.804Z,55.53
2018-02-07T07:40:57.476Z,51.50
2018-02-07T07:43:24.112Z,58.10
2018-02-07T07:45:51.110Z,52.75
2018-02-07T07:48:17.803Z,60.05
2018-02-07T07:50:44.374Z,53.03
2018-02-07T07:53:11.310Z,52.92
2018-02-07T07:55:37.877Z,60.95
2018-02-07T07:58:04.445Z,59.20
2018-02-07T08:00:30.985Z,58.80
2018-02-07T08:02:58.032Z,62.47
2018-02-07T08:05:24.973Z,67.20
2018-02-07T08:07:51.510Z,69.20
2018-02-07T08:10:18.560Z,63.65
2018-02-07T08:12:45.529Z,69.82
2018-02-07T08:15:12.580Z,60.80
2018-02-07T08:17:39.583Z,59.78
2018-02-07T08:20:06.770Z,59.55
2018-02-07T08:22:33.377Z,66.82
2018-02-07T08:25:00.327Z,68.82
2018-02-07T08:27:26.952Z,57.65
2018-02-07T08:29:53.484Z,68.32
2018-02-07T08:32:20.093Z,65.22
2018-02-07T08:34:46.707Z,67.07
2018-02-07T08:37:13.239Z,71.45
2018-02-07T08:39:39.843Z,62.62
2018-02-07T08:42:07.170Z,61.92
2018-02-07T08:44:33.712Z,57.10
2018-02-07T08:47:00.333Z,58.63
2018-02-07T08:49:26.917Z,59.35
2018-02-07T08:51:53.516Z,53.17
2018-02-07T08:54:20.158Z,54.50
2018-02-07T08:56:46.743Z,56.25
2018-02-07T08:59:13.382Z,57.85
2018-02-07T09:01:39.960Z,55.12
2018-02-07T09:04:06.606Z,57.25
2018-02-07T09:06:33.153Z,57.17
2018-02-07T09:08:59.717Z,51.95
2018-02-07T09:11:26.289Z,58.72
2018-02-07T09:13:52.841Z,56.42
2018-02-07T09:16:19.409Z,56.13
2018-02-07T09:18:45.993Z,55.80
2018-02-07T09:21:12.544Z,63.20
2018-02-07T09:23:39.113Z,59.25
2018-02-07T09:26:06.049Z,53.22
2018-02-07T09:28:32.609Z,53.10
2018-02-07T09:30:59.587Z,57.03
2018-02-07T09:33:26.209Z,63.08
2018-02-07T09:35:53.116Z,50.47
2018-02-07T09:38:19.704Z,58.75
2018-02-07T09:40:46.299Z,58.35
2018-02-07T09:43:12.873Z,47.78
2018-02-07T09:45:39.450Z,53.87
2018-02-07T09:48:06.029Z,57.20
2018-02-07T09:50:32.560Z,66.07
2018-02-07T09:52:59.529Z,60.70
2018-02-07T09:55:26.108Z,60.15
2018-02-07T09:57:52.637Z,55.58
2018-02-07T10:00:19.277Z,53.92
2018-02-07T10:02:45.863Z,59.58
2018-02-07T10:05:12.449Z,53.42
2018-02-07T10:07:39.017Z,53.55
2018-02-07T10:10:05.577Z,52.62
2018-02-07T10:12:32.133Z,54.28
2018-02-07T10:14:58.702Z,50.70
2018-02-07T10:17:25.289Z,54.30
2018-02-07T10:19:52.198Z,57.58
2018-02-07T10:22:25.607Z,57.13
2018-02-07T10:24:52.223Z,55.67
2018-02-07T10:27:19.031Z,58.42
2018-02-07T10:29:46.064Z,58.33
2018-02-07T10:32:12.666Z,61.50
2018-02-07T10:34:39.581Z,54.45
2018-02-07T10:37:06.303Z,57.95
2018-02-07T10:39:33.156Z,52.03
2018-02-07T10:41:59.772Z,60.50
2018-02-07T10:44:26.721Z,56.30
2018-02-07T10:46:53.296Z,56.85
2018-02-07T10:49:20.282Z,53.85
2018-02-07T10:51:47.290Z,60.33
2018-02-07T10:54:13.908Z,59.22
2018-02-07T10:56:40.518Z,57.22
2018-02-07T10:59:07.106Z,65.65
2018-02-07T11:01:33.693Z,58.63
2018-02-07T11:04:00.321Z,58.13
2018-02-07T11:06:27.011Z,60.72
2018-02-07T11:08:53.690Z,56.72
2018-02-07T11:11:20.637Z,60.78
2018-02-07T11:13:47.232Z,57.03
2018-02-07T11:16:14.169Z,57.10
2018-02-07T11:18:40.713Z,62.00
2018-02-07T11:21:07.353Z,62.60
2018-02-07T11:23:34.397Z,58.05
2018-02-07T11:26:00.963Z,65.55
2018-02-07T11:28:27.541Z,61.60
2018-02-07T11:30:54.491Z,64.30
2018-02-07T11:33:21.054Z,63.60
2018-02-07T11:35:47.986Z,64.47
2018-02-07T11:38:14.577Z,61.67
2018-02-07T11:40:41.112Z,57.40
2018-02-07T11:43:07.693Z,54.63
2018-02-07T11:45:34.311Z,64.97
2018-02-07T11:48:00.861Z,59.13
2018-02-07T11:50:27.449Z,56.13
2018-02-07T11:52:54.041Z,60.40
2018-02-07T11:55:21.033Z,58.17
2018-02-07T11:57:47.612Z,63.58
2018-02-07T12:00:14.194Z,59.97
2018-02-07T12:02:41.097Z,62.10
2018-02-07T12:05:07.747Z,60.47
2018-02-07T12:07:34.317Z,67.15
2018-02-07T12:10:00.846Z,60.58
2018-02-07T12:12:27.434Z,64.95
2018-02-07T12:14:54.386Z,64.68
2018-02-07T12:17:20.922Z,67.85
2018-02-07T12:19:47.527Z,61.25
2018-02-07T12:22:14.101Z,58.45
2018-02-07T12:24:40.642Z,69.95
2018-02-07T12:27:07.209Z,57.65
2018-02-07T12:29:33.822Z,60.30
2018-02-07T12:32:01.548Z,66.60
2018-02-07T12:34:28.494Z,57.45
2018-02-07T12:36:55.349Z,58.45
2018-02-07T12:39:21.924Z,62.05
2018-02-07T12:41:48.497Z,56.78
2018-02-07T12:44:15.059Z,60.53
2018-02-07T12:46:41.645Z,65.25
2018-02-07T12:49:08.580Z,59.22
2018-02-07T12:51:35.170Z,65.50
2018-02-07T12:54:02.074Z,62.10
2018-02-07T12:56:28.640Z,66.85
2018-02-07T12:58:55.209Z,68.25
2018-02-07T13:01:22.122Z,60.38
2018-02-07T13:03:48.717Z,64.65
2018-02-07T13:06:15.690Z,74.80
2018-02-07T13:08:42.477Z,69.28
2018-02-07T13:11:09.056Z,65.90
2018-02-07T13:13:35.633Z,68.72
2018-02-07T13:16:02.173Z,69.97
2018-02-07T13:18:28.749Z,70.95
2018-02-07T13:20:55.353Z,72.87
2018-02-07T13:23:21.880Z,68.82
2018-02-07T13:25:48.462Z,76.82
2018-02-07T13:28:15.397Z,77.10
2018-02-07T13:30:41.946Z,78.30
2018-02-07T13:33:09.386Z,67.15
2018-02-07T13:35:35.974Z,68.68
2018-02-07T13:38:02.508Z,69.32
2018-02-07T13:40:29.069Z,71.35
2018-02-07T13:42:56.025Z,70.50
2018-02-07T13:45:23.117Z,70.25
2018-02-07T13:47:49.691Z,63.13
2018-02-07T13:50:16.271Z,60.42
2018-02-07T13:52:43.196Z,65.12
2018-02-07T13:55:09.773Z,65.72
2018-02-07T13:57:37.325Z,67.55
2018-02-07T14:00:04.260Z,71.20
2018-02-07T14:02:31.562Z,71.68
2018-02-07T14:04:58.501Z,73.37
2018-02-07T14:07:25.065Z,61.58
2018-02-07T14:09:51.640Z,68.32
2018-02-07T14:12:18.210Z,67.32
2018-02-07T14:14:44.749Z,65.28
2018-02-07T14:17:11.321Z,62.60
2018-02-07T14:19:37.910Z,62.67
2018-02-07T14:22:04.450Z,66.55
2018-02-07T14:24:31.599Z,65.85
2018-02-07T14:26:58.181Z,70.30
2018-02-07T14:29:24.804Z,66.05
2018-02-07T14:31:51.786Z,67.65
2018-02-07T14:34:18.360Z,73.78
2018-02-07T14:36:44.918Z,70.43
2018-02-07T14:39:11.512Z,66.05
2018-02-07T14:41:38.133Z,72.75
2018-02-07T14:44:04.676Z,73.00
2018-02-07T14:46:31.236Z,74.78
2018-02-07T14:48:57.805Z,71.37
2018-02-07T14:51:24.704Z,71.32
2018-02-07T14:53:51.276Z,79.65
2018-02-07T14:56:17.867Z,72.35
2018-02-07T14:58:44.785Z,67.93
2018-02-07T15:01:18.412Z,66.22
2018-02-07T15:03:45.002Z,61.55
2018-02-07T15:06:11.553Z,62.15
2018-02-07T15:08:38.152Z,61.92
2018-02-07T15:11:04.716Z,64.40
2018-02-07T15:13:31.637Z,64.15
2018-02-07T15:15:58.212Z,68.37
2018-02-07T15:18:24.926Z,56.72
2018-02-07T15:20:51.486Z,59.85
2018-02-07T15:23:18.080Z,60.20
2018-02-07T15:25:45.054Z,58.10
2018-02-07T15:28:11.597Z,61.15
2018-02-07T15:30:38.215Z,64.22
2018-02-07T15:33:04.887Z,58.60
2018-02-07T15:35:31.453Z,61.15
2018-02-07T15:37:58.021Z,56.45
2018-02-07T15:40:24.677Z,57.90
2018-02-07T15:42:51.281Z,56.88
2018-02-07T15:45:17.897Z,57.35
2018-02-07T15:47:44.499Z,64.12
2018-02-07T15:50:11.053Z,54.55
2018-02-07T15:52:37.622Z,61.17
2018-02-07T15:55:04.255Z,58.22
2018-02-07T15:57:30.893Z,60.08
2018-02-07T15:59:57.462Z,63.72
2018-02-07T16:02:24.049Z,70.68
2018-02-07T16:04:50.966Z,66.65
2018-02-07T16:07:17.574Z,65.20
2018-02-07T16:09:44.165Z,69.78
2018-02-07T16:12:10.714Z,51.95
2018-02-07T16:14:37.342Z,62.95
2018-02-07T16:17:03.917Z,58.15
2018-02-07T16:19:30.478Z,56.83
2018-02-07T16:21:57.430Z,56.53
2018-02-07T16:24:24.067Z,58.05
2018-02-07T16:26:50.628Z,69.50
2018-02-07T16:29:17.221Z,54.47
2018-02-07T16:31:43.785Z,60.47
2018-02-07T16:34:10.325Z,54.25
2018-02-07T16:36:36.930Z,56.78
2018-02-07T16:39:03.991Z,61.92
2018-02-07T16:41:30.907Z,62.00
2018-02-07T16:43:57.473Z,64.05
2018-02-07T16:46:24.053Z,57.40
2018-02-07T16:48:50.995Z,54.33
2018-02-07T16:51:17.581Z,57.22
2018-02-07T16:53:44.150Z,57.75
2018-02-07T16:56:10.721Z,58.63
2018-02-07T16:58:37.285Z,70.00
2018-02-07T17:01:03.893Z,59.92
2018-02-07T17:03:30.466Z,63.67
2018-02-07T17:05:57.084Z,61.70
2018-02-07T17:08:23.698Z,66.70
2018-02-07T17:10:50.262Z,65.57
2018-02-07T17:13:16.841Z,58.20
2018-02-07T17:15:43.453Z,56.65
2018-02-07T17:18:09.997Z,79.40
2018-02-07T17:20:36.573Z,71.47
2018-02-07T17:23:03.144Z,72.20
2018-02-07T17:25:29.679Z,78.68
2018-02-07T17:27:56.241Z,77.62
2018-02-07T17:30:22.833Z,76.45
2018-02-07T17:32:49.365Z,81.30
2018-02-07T17:35:16.309Z,66.65
2018-02-07T17:37:43.254Z,67.45
2018-02-07T17:40:09.825Z,70.07
2018-02-07T17:42:36.873Z,69.45
2018-02-07T17:45:03.489Z,81.63
2018-02-07T17:47:30.072Z,73.15
2018-02-07T17:49:57.027Z,77.72
2018-02-07T17:52:25.384Z,61.65
2018-02-07T17:54:51.930Z,64.30
2018-02-07T17:57:18.553Z,62.67
2018-02-07T17:59:45.154Z,53.67
2018-02-07T18:02:11.720Z,66.20
2018-02-07T18:04:38.305Z,61.92
2018-02-07T18:07:05.102Z,69.75
2018-02-07T18:09:32.020Z,63.87
2018-02-07T18:11:58.722Z,67.70
2018-02-07T18:14:25.369Z,57.92
2018-02-07T18:16:51.953Z,62.78
2018-02-07T18:19:18.613Z,65.07
2018-02-07T18:21:45.733Z,63.95
2018-02-07T18:24:12.310Z,72.15
2018-02-07T18:26:38.906Z,66.82
2018-02-07T18:29:05.572Z,72.40
2018-02-07T18:31:32.485Z,61.80
2018-02-07T18:33:59.266Z,63.83
2018-02-07T18:36:25.878Z,57.70
2018-02-07T18:38:52.500Z,64.35
2018-02-07T18:41:19.185Z,63.83
2018-02-07T18:43:45.844Z,67.30
2018-02-07T18:46:12.514Z,67.72
2018-02-07T18:48:39.175Z,70.55
2018-02-07T18:51:06.138Z,73.40
2018-02-07T18:53:32.720Z,66.35
2018-02-07T18:55:59.305Z,63.92
2018-02-07T18:58:25.903Z,62.83
2018-02-07T19:00:52.512Z,56.13
2018-02-07T19:03:19.525Z,68.55
2018-02-07T19:05:46.112Z,69.30
2018-02-07T19:08:12.736Z,62.22
2018-02-07T19:10:39.329Z,61.20
2018-02-07T19:13:06.296Z,60.65
2018-02-07T19:15:33.209Z,63.87
2018-02-07T19:17:59.778Z,56.55
2018-02-07T19:20:26.349Z,64.32
2018-02-07T19:22:53.282Z,59.20
2018-02-07T19:25:19.873Z,80.22
2018-02-07T19:27:46.491Z,55.70
2018-02-07T19:30:13.395Z,68.07
2018-02-07T19:32:39.994Z,57.65
2018-02-07T19:35:06.568Z,60.30
2018-02-07T19:37:33.241Z,69.20
2018-02-07T19:39:59.834Z,62.15
2018-02-07T19:42:26.490Z,66.75
2018-02-07T19:44:53.671Z,65.20
2018-02-07T19:47:20.798Z,67.30
2018-02-07T19:49:47.397Z,59.42
2018-02-07T19:52:13.957Z,67.60
2018-02-07T19:54:40.586Z,66.70
2018-02-07T19:57:07.165Z,58.25
2018-02-07T19:59:33.812Z,64.47
2018-02-07T20:02:00.484Z,70.50
2018-02-07T20:04:27.172Z,62.20
2018-02-07T20:06:54.078Z,67.93
2018-02-07T20:09:20.725Z,62.40
2018-02-07T20:11:47.313Z,67.43
2018-02-07T20:14:15.235Z,66.55
2018-02-07T20:16:41.798Z,73.95
2018-02-07T20:19:08.862Z,76.90
2018-02-07T20:21:35.909Z,63.45
2018-02-07T20:24:02.589Z,67.20
2018-02-07T20:26:29.548Z,67.75
2018-02-07T20:28:56.489Z,72.12
2018-02-07T20:31:23.146Z,66.85
2018-02-07T20:33:49.729Z,65.10
2018-02-07T20:36:17.703Z,60.85
2018-02-07T20:38:45.106Z,62.45
2018-02-07T20:41:11.933Z,71.32
2018-02-07T20:43:39.666Z,59.35
2018-02-07T20:46:06.987Z,77.60
2018-02-07T20:48:34.630Z,71.07
2018-02-07T20:51:01.216Z,74.03
2018-02-07T20:53:27.969Z,78.75
2018-02-07T20:55:54.782Z,79.05
2018-02-07T20:58:21.652Z,76.55
2018-02-07T21:00:48.528Z,65.00
2018-02-07T21:03:15.418Z,59.90
2018-02-07T21:05:42.584Z,78.07
2018-02-07T21:08:10.169Z,62.40
2018-02-07T21:10:37.141Z,73.97
2018-02-07T21:13:03.775Z,66.97
2018-02-07T21:15:30.875Z,63.60
2018-02-07T21:17:57.498Z,61.05
2018-02-07T21:20:24.542Z,59.20
2018-02-07T21:22:51.609Z,63.65
2018-02-07T21:25:18.206Z,70.18
2018-02-07T21:27:44.790Z,63.22
2018-02-07T21:30:11.396Z,74.60
2018-02-07T21:32:37.994Z,66.85
2018-02-07T21:35:04.915Z,72.90
2018-02-07T21:37:31.513Z,63.97
2018-02-07T21:39:58.139Z,71.68
2018-02-07T21:42:25.082Z,71.70
2018-02-07T21:44:51.726Z,75.10
2018-02-07T21:47:18.315Z,74.55
2018-02-07T21:49:45.261Z,61.95
2018-02-07T21:52:12.237Z,73.32
2018-02-07T21:54:38.839Z,63.92
2018-02-07T21:57:05.382Z,75.60
2018-02-07T21:59:31.961Z,71.12
2018-02-07T22:01:58.566Z,64.60
2018-02-07T22:04:25.125Z,66.00
2018-02-07T22:06:51.705Z,77.45
2018-02-07T22:09:18.780Z,74.07
2018-02-07T22:11:45.438Z,80.65
2018-02-07T22:14:12.109Z,59.65
2018-02-07T22:16:38.798Z,65.60
2018-02-07T22:19:05.403Z,68.35
2018-02-07T22:21:32.405Z,73.40
2018-02-07T22:23:59.018Z,73.80
2018-02-07T22:26:25.575Z,73.87
2018-02-07T22:28:52.161Z,66.60
2018-02-07T22:31:19.133Z,63.78
2018-02-07T22:33:45.751Z,68.97
2018-02-07T22:39:10.586Z,65.05
2018-02-07T22:41:37.165Z,64.22
2018-02-07T22:44:03.748Z,59.88
2018-02-07T22:46:30.276Z,66.35
2018-02-07T22:48:56.849Z,66.65
2018-02-07T22:51:23.416Z,63.30
2018-02-07T22:53:49.961Z,65.03
2018-02-07T22:56:16.530Z,67.07
2018-02-07T22:58:43.103Z,64.40
2018-02-07T23:01:09.636Z,69.87
2018-02-07T23:03:36.582Z,69.90
2018-02-07T23:06:03.629Z,70.68
2018-02-07T23:08:30.178Z,68.10
2018-02-07T23:10:56.785Z,65.30
2018-02-07T23:13:23.377Z,72.03
2018-02-07T23:15:49.972Z,65.07
2018-02-07T23:18:16.550Z,67.87
2018-02-07T23:20:43.116Z,65.82
2018-02-07T23:23:09.637Z,68.12
2018-02-07T23:25:36.205Z,66.85
2018-02-07T23:28:02.780Z,57.95
2018-02-07T23:30:29.689Z,68.50
2018-02-07T23:32:56.248Z,75.03
2018-02-07T23:35:22.817Z,70.90
2018-02-07T23:37:49.363Z,64.28
2018-02-07T23:40:15.929Z,65.53
2018-02-07T23:42:42.890Z,64.53
2018-02-07T23:45:09.437Z,72.45
2018-02-07T23:47:36.017Z,66.57
2018-02-07T23:50:02.608Z,70.22
2018-02-07T23:52:29.145Z,61.10
2018-02-07T23:54:55.730Z,69.37
2018-02-07T23:57:22.335Z,70.07
2018-02-07T23:59:48.888Z,67.97
